createdAt,value
2018-11-06T00:00:54.809Z,5.99
2018-11-06T00:03:29.937Z,5.93
2018-11-06T00:06:00.033Z,5.98
2018-11-06T00:08:29.928Z,5.93
2018-11-06T00:10:59.754Z,5.93
2018-11-06T00:13:29.707Z,5.82
2018-11-06T00:15:59.605Z,5.80
2018-11-06T00:18:29.492Z,5.91
2018-11-06T00:21:00.380Z,5.86
2018-11-06T00:27:54.475Z,6.06
2018-11-06T00:30:25.082Z,5.83
2018-11-06T00:32:55.183Z,5.95
2018-11-06T00:35:25.097Z,5.91
2018-11-06T00:37:55.844Z,5.87
2018-11-06T00:40:26.697Z,5.96
2018-11-06T00:42:56.614Z,6.13
2018-11-06T00:45:27.304Z,6.08
2018-11-06T00:47:57.189Z,6.07
2018-11-06T00:50:27.104Z,6.16
2018-11-06T00:52:57.049Z,6.20
2018-11-06T00:55:26.973Z,6.15
2018-11-06T00:57:56.921Z,6.26
2018-11-06T01:00:26.737Z,6.26
2018-11-06T01:02:56.679Z,6.23
2018-11-06T01:05:26.693Z,6.22
2018-11-06T01:07:56.563Z,6.14
2018-11-06T01:10:26.498Z,6.12
2018-11-06T01:12:56.361Z,6.19
2018-11-06T01:15:26.322Z,6.25
2018-11-06T01:17:56.363Z,6.30
2018-11-06T01:20:26.166Z,6.23
2018-11-06T01:22:55.976Z,6.21
2018-11-06T01:25:25.732Z,6.19
2018-11-06T01:27:55.672Z,6.12
2018-11-06T01:30:25.935Z,6.15
2018-11-06T01:32:55.912Z,6.29
2018-11-06T01:35:25.671Z,6.14
2018-11-06T01:37:55.491Z,6.17
2018-11-06T01:40:25.211Z,6.26
2018-11-06T01:42:55.003Z,6.25
2018-11-06T01:45:24.789Z,6.37
2018-11-06T01:47:54.590Z,6.33
2018-11-06T01:50:24.420Z,6.28
2018-11-06T01:52:54.239Z,6.21
2018-11-06T01:55:24.651Z,6.25
2018-11-06T01:57:55.079Z,6.35
2018-11-06T02:00:25.711Z,6.27
2018-11-06T02:02:55.536Z,6.30
2018-11-06T02:05:26.023Z,6.26
2018-11-06T02:07:55.840Z,6.18
2018-11-06T02:10:25.769Z,6.15
2018-11-06T02:12:55.503Z,6.14
2018-11-06T02:15:25.293Z,6.20
2018-11-06T02:17:55.025Z,6.22
2018-11-06T02:20:24.757Z,6.25
2018-11-06T02:22:54.481Z,6.33
2018-11-06T02:25:24.269Z,6.22
2018-11-06T02:27:54.041Z,6.27
2018-11-06T02:30:23.781Z,6.23
2018-11-06T02:32:54.105Z,6.22
2018-11-06T02:35:23.856Z,6.27
2018-11-06T02:37:53.591Z,6.22
2018-11-06T02:40:23.318Z,6.27
2018-11-06T02:42:53.042Z,6.41
2018-11-06T02:45:22.781Z,6.38
2018-11-06T02:47:52.529Z,6.41
2018-11-06T02:50:22.297Z,6.43
2018-11-06T02:52:52.085Z,6.40
2018-11-06T02:55:22.375Z,6.41
2018-11-06T02:57:52.108Z,6.31
2018-11-06T03:00:21.935Z,6.38
2018-11-06T03:02:51.697Z,6.39
2018-11-06T03:05:21.468Z,6.36
2018-11-06T03:07:51.240Z,6.25
2018-11-06T03:10:21.506Z,6.20
2018-11-06T03:12:51.712Z,6.16
2018-11-06T03:16:51.018Z,6.17
2018-11-06T03:19:20.932Z,6.19
2018-11-06T03:21:50.767Z,6.20
2018-11-06T03:24:20.494Z,6.17
2018-11-06T03:26:50.283Z,6.04
2018-11-06T03:29:20.587Z,6.06
2018-11-06T03:31:50.327Z,5.98
2018-11-06T03:34:20.133Z,5.89
2018-11-06T03:36:49.884Z,6.04
2018-11-06T03:39:19.717Z,5.99
2018-11-06T03:41:49.542Z,5.99
2018-11-06T03:44:19.517Z,6.03
2018-11-06T03:46:49.314Z,6.22
2018-11-06T03:49:19.066Z,6.22
2018-11-06T03:51:49.050Z,6.08
2018-11-06T03:54:18.799Z,6.06
2018-11-06T03:56:48.583Z,6.02
2018-11-06T03:59:18.440Z,5.95
2018-11-06T04:01:48.160Z,5.83
2018-11-06T04:04:17.983Z,5.77
2018-11-06T04:06:47.823Z,5.75
2018-11-06T04:09:17.650Z,5.69
2018-11-06T04:11:47.469Z,5.75
2018-11-06T04:14:17.870Z,5.92
2018-11-06T04:16:47.648Z,5.85
2018-11-06T04:19:17.390Z,5.83
2018-11-06T04:21:47.414Z,5.74
2018-11-06T04:24:17.310Z,5.81
2018-11-06T04:26:47.260Z,5.79
2018-11-06T04:29:17.048Z,5.87
2018-11-06T04:31:46.796Z,5.66
2018-11-06T04:34:16.719Z,5.64
2018-11-06T04:36:46.498Z,5.56
2018-11-06T04:39:16.262Z,5.47
2018-11-06T04:41:46.067Z,5.51
2018-11-06T04:44:16.013Z,5.39
2018-11-06T04:46:45.745Z,5.23
2018-11-06T04:49:15.852Z,5.16
2018-11-06T04:51:45.617Z,4.98
2018-11-06T04:57:50.891Z,4.77
2018-11-06T05:00:20.983Z,4.58
2018-11-06T05:02:51.180Z,4.65
2018-11-06T05:05:20.989Z,4.59
2018-11-06T05:07:51.093Z,4.41
2018-11-06T05:10:20.883Z,4.28
2018-11-06T05:12:50.629Z,4.56
2018-11-06T05:15:20.390Z,4.64
2018-11-06T05:17:50.196Z,4.52
2018-11-06T05:20:20.342Z,4.56
2018-11-06T05:22:50.116Z,4.63
2018-11-06T05:25:19.933Z,4.68
2018-11-06T05:27:49.871Z,4.80
2018-11-06T05:30:19.655Z,4.71
2018-11-06T05:32:50.665Z,4.70
2018-11-06T05:35:20.633Z,4.70
2018-11-06T05:37:50.410Z,4.74
2018-11-06T05:40:37.043Z,4.80
2018-11-06T05:43:07.286Z,4.70
2018-11-06T05:45:37.116Z,4.76
2018-11-06T05:48:07.496Z,4.76
2018-11-06T05:50:37.290Z,5.10
2018-11-06T05:53:07.167Z,5.11
2018-11-06T05:55:37.933Z,5.15
2018-11-06T05:58:07.753Z,5.25
2018-11-06T06:00:37.508Z,5.35
2018-11-06T06:03:07.852Z,5.46
2018-11-06T06:05:37.616Z,5.42
2018-11-06T06:08:07.926Z,5.51
2018-11-06T06:10:37.742Z,5.45
2018-11-06T06:13:08.057Z,5.56
2018-11-06T06:15:37.819Z,5.66
2018-11-06T06:18:07.610Z,5.61
2018-11-06T06:20:38.132Z,5.65
2018-11-06T06:23:07.931Z,5.63
2018-11-06T06:25:37.794Z,5.79
2018-11-06T06:28:07.597Z,5.67
2018-11-06T06:30:37.415Z,5.70
2018-11-06T06:33:07.185Z,5.67
2018-11-06T06:35:37.014Z,5.74
2018-11-06T06:38:07.227Z,5.70
2018-11-06T06:40:37.157Z,5.81
2018-11-06T06:43:07.947Z,5.88
2018-11-06T06:45:37.746Z,5.82
2018-11-06T06:48:08.402Z,6.00
2018-11-06T06:50:38.349Z,6.04
2018-11-06T06:53:08.152Z,6.05
2018-11-06T06:55:37.977Z,6.11
2018-11-06T06:58:07.735Z,6.20
2018-11-06T07:00:37.520Z,6.08
2018-11-06T07:03:07.331Z,6.16
2018-11-06T07:05:37.144Z,6.29
2018-11-06T07:08:07.059Z,6.34
2018-11-06T07:10:36.919Z,6.48
2018-11-06T07:13:07.210Z,6.49
2018-11-06T07:15:37.195Z,6.48
2018-11-06T07:18:07.153Z,6.61
2018-11-06T07:20:36.935Z,6.58
2018-11-06T07:23:07.039Z,6.65
2018-11-06T07:25:36.855Z,6.73
2018-11-06T07:28:07.132Z,6.76
2018-11-06T07:30:36.878Z,6.91
2018-11-06T07:33:06.691Z,6.91
2018-11-06T07:35:36.669Z,6.84
2018-11-06T07:38:06.967Z,6.79
2018-11-06T07:40:36.788Z,6.79
2018-11-06T07:43:07.790Z,6.84
2018-11-06T07:45:37.735Z,6.83
2018-11-06T07:48:07.533Z,6.95
2018-11-06T07:50:37.291Z,7.22
2018-11-06T07:53:07.067Z,7.27
2018-11-06T07:55:36.900Z,7.18
2018-11-06T07:58:07.111Z,7.17
2018-11-06T08:00:37.017Z,7.31
2018-11-06T08:03:06.943Z,7.48
2018-11-06T08:05:36.753Z,7.56
2018-11-06T08:08:07.883Z,7.59
2018-11-06T08:10:37.725Z,7.48
2018-11-06T08:13:08.007Z,7.56
2018-11-06T08:15:37.863Z,7.55
2018-11-06T08:18:07.740Z,7.65
2018-11-06T08:20:37.870Z,7.69
2018-11-06T08:23:07.819Z,7.60
2018-11-06T08:25:37.779Z,7.66
2018-11-06T08:28:08.363Z,7.72
2018-11-06T08:30:38.443Z,7.81
2018-11-06T08:33:08.372Z,7.97
2018-11-06T08:35:38.166Z,8.10
2018-11-06T08:38:08.053Z,8.25
2018-11-06T08:40:38.657Z,8.34
2018-11-06T08:43:08.470Z,8.42
2018-11-06T08:45:38.370Z,8.56
2018-11-06T08:48:08.173Z,8.62
2018-11-06T08:50:38.162Z,8.70
2018-11-06T08:53:07.906Z,8.73
2018-11-06T08:55:37.640Z,8.90
2018-11-06T08:58:07.502Z,8.87
2018-11-06T09:00:37.713Z,8.89
2018-11-06T09:03:07.539Z,8.70
2018-11-06T09:05:37.278Z,8.80
2018-11-06T09:08:07.090Z,8.97
2018-11-06T09:10:37.030Z,9.05
2018-11-06T09:13:06.925Z,9.11
2018-11-06T09:15:36.726Z,9.08
2018-11-06T09:18:06.550Z,9.07
2018-11-06T09:20:36.430Z,8.94
2018-11-06T09:23:06.270Z,9.08
2018-11-06T09:25:36.050Z,9.08
2018-11-06T09:28:05.928Z,9.20
2018-11-06T09:30:35.785Z,9.28
2018-11-06T09:33:05.758Z,9.29
2018-11-06T09:35:35.539Z,9.46
2018-11-06T09:38:05.435Z,9.75
2018-11-06T09:40:35.229Z,9.92
2018-11-06T09:43:05.650Z,9.99
2018-11-06T09:45:35.553Z,10.29
2018-11-06T09:48:06.034Z,10.37
2018-11-06T09:50:35.920Z,9.81
2018-11-06T09:53:06.132Z,10.05
2018-11-06T09:55:35.954Z,10.20
2018-11-06T09:58:06.532Z,10.43
2018-11-06T10:00:36.434Z,10.46
2018-11-06T10:03:06.675Z,10.41
2018-11-06T10:05:36.433Z,10.04
2018-11-06T10:08:06.559Z,10.17
2018-11-06T10:10:36.352Z,10.29
2018-11-06T10:13:06.400Z,10.48
2018-11-06T10:15:36.230Z,10.69
2018-11-06T10:18:07.446Z,10.83
2018-11-06T10:20:37.211Z,10.96
2018-11-06T10:23:07.632Z,10.93
2018-11-06T10:25:37.435Z,11.00
2018-11-06T10:28:07.245Z,11.08
2018-11-06T10:30:37.211Z,11.29
2018-11-06T10:33:07.327Z,11.39
2018-11-06T10:35:37.192Z,11.30
2018-11-06T10:38:07.509Z,11.35
2018-11-06T10:40:38.040Z,11.36
2018-11-06T10:43:08.014Z,11.45
2018-11-06T10:45:38.052Z,11.51
2018-11-06T10:48:07.960Z,11.60
2018-11-06T10:50:37.770Z,11.50
2018-11-06T10:53:07.634Z,11.27
2018-11-06T10:55:37.475Z,11.24
2018-11-06T10:58:07.648Z,11.11
2018-11-06T11:00:43.308Z,11.14
2018-11-06T11:03:18.322Z,11.22
2018-11-06T11:05:48.323Z,11.37
2018-11-06T11:08:18.138Z,11.53
2018-11-06T11:10:48.100Z,11.70
2018-11-06T11:13:17.977Z,11.75
2018-11-06T11:15:48.188Z,11.80
2018-11-06T11:18:18.034Z,11.82
2018-11-06T11:20:47.916Z,11.68
2018-11-06T11:23:18.316Z,11.77
2018-11-06T11:25:48.275Z,11.82
2018-11-06T11:28:18.228Z,11.80
2018-11-06T11:30:48.781Z,11.97
2018-11-06T11:33:18.629Z,11.92
2018-11-06T11:35:49.153Z,11.89
2018-11-06T11:38:19.199Z,11.91
2018-11-06T11:40:50.087Z,11.93
2018-11-06T11:43:19.893Z,11.97
2018-11-06T11:45:49.899Z,12.03
2018-11-06T11:48:20.559Z,11.89
2018-11-06T11:50:50.479Z,11.85
2018-11-06T11:53:20.497Z,11.51
2018-11-06T11:55:50.365Z,11.46
2018-11-06T11:58:20.339Z,11.13
2018-11-06T12:00:50.581Z,11.12
2018-11-06T12:03:20.468Z,11.20
2018-11-06T12:05:50.376Z,11.20
2018-11-06T12:08:20.755Z,10.98
2018-11-06T12:10:50.653Z,10.95
2018-11-06T12:13:20.444Z,10.83
2018-11-06T12:15:50.282Z,10.73
2018-11-06T12:18:20.111Z,10.62
2018-11-06T12:20:50.794Z,10.55
2018-11-06T12:23:20.594Z,10.40
2018-11-06T12:25:50.556Z,10.29
2018-11-06T12:28:20.771Z,10.28
2018-11-06T12:30:50.692Z,10.27
2018-11-06T12:33:20.525Z,10.21
2018-11-06T12:35:50.455Z,10.22
2018-11-06T12:38:22.027Z,10.19
2018-11-06T12:40:52.093Z,10.15
2018-11-06T12:43:22.649Z,10.21
2018-11-06T12:45:52.635Z,10.18
2018-11-06T12:48:22.463Z,10.14
2018-11-06T12:50:52.275Z,10.16
2018-11-06T12:53:22.181Z,10.08
2018-11-06T12:55:52.069Z,10.02
2018-11-06T12:58:21.913Z,10.10
2018-11-06T13:00:51.879Z,10.15
2018-11-06T13:03:21.978Z,10.10
2018-11-06T13:05:52.015Z,10.04
2018-11-06T13:08:22.504Z,10.04
2018-11-06T13:10:52.324Z,10.11
2018-11-06T13:13:22.125Z,10.00
2018-11-06T13:15:52.065Z,9.95
2018-11-06T13:18:22.074Z,9.97
2018-11-06T13:20:52.623Z,9.90
2018-11-06T13:23:22.491Z,9.91
2018-11-06T13:25:52.586Z,9.92
2018-11-06T13:28:23.355Z,10.11
2018-11-06T13:30:53.515Z,10.17
2018-11-06T13:33:23.371Z,10.33
2018-11-06T13:35:53.236Z,10.29
2018-11-06T13:38:23.026Z,10.17
2018-11-06T13:40:52.892Z,10.22
2018-11-06T13:43:22.796Z,10.30
2018-11-06T13:45:52.935Z,10.37
2018-11-06T13:48:22.851Z,10.41
2018-11-06T13:50:52.752Z,10.45
2018-11-06T13:53:22.616Z,10.51
2018-11-06T13:55:52.461Z,10.61
2018-11-06T13:58:22.361Z,10.65
2018-11-06T14:00:52.863Z,10.67
2018-11-06T14:03:22.742Z,10.80
2018-11-06T14:05:53.087Z,10.83
2018-11-06T14:08:23.265Z,10.67
2018-11-06T14:10:53.091Z,10.49
2018-11-06T14:13:22.913Z,10.45
2018-11-06T14:15:52.861Z,10.46
2018-11-06T14:18:22.783Z,10.47
2018-11-06T14:20:52.700Z,10.55
2018-11-06T14:23:22.805Z,10.50
2018-11-06T14:25:52.720Z,10.58
2018-11-06T14:28:22.781Z,10.70
2018-11-06T14:30:53.368Z,10.67
2018-11-06T14:33:23.446Z,10.69
2018-11-06T14:35:53.561Z,10.72
2018-11-06T14:38:23.637Z,10.73
2018-11-06T14:40:53.612Z,10.73
2018-11-06T14:43:23.933Z,10.81
2018-11-06T14:45:54.294Z,10.96
2018-11-06T14:48:24.396Z,11.14
2018-11-06T14:50:54.561Z,11.26
2018-11-06T14:53:24.632Z,11.41
2018-11-06T14:55:54.734Z,11.48
2018-11-06T14:58:24.728Z,11.57
2018-11-06T15:00:54.736Z,11.69
2018-11-06T15:03:24.716Z,11.83
2018-11-06T15:05:54.578Z,11.96
2018-11-06T15:08:24.388Z,11.98
2018-11-06T15:10:54.240Z,11.95
2018-11-06T15:13:24.076Z,11.97
2018-11-06T15:15:54.753Z,11.99
2018-11-06T15:18:24.742Z,12.06
2018-11-06T15:20:54.859Z,12.07
2018-11-06T15:23:24.850Z,12.07
2018-11-06T15:25:54.744Z,12.14
2018-11-06T15:28:24.536Z,12.16
2018-11-06T15:30:54.660Z,12.22
2018-11-06T15:33:25.149Z,12.26
2018-11-06T15:35:55.345Z,12.29
2018-11-06T15:38:25.418Z,12.28
2018-11-06T15:40:55.245Z,12.23
2018-11-06T15:43:25.279Z,12.25
2018-11-06T15:45:55.139Z,12.25
2018-11-06T15:48:25.177Z,12.22
2018-11-06T15:50:55.195Z,12.28
2018-11-06T15:53:24.948Z,12.28
2018-11-06T15:55:54.922Z,12.30
2018-11-06T15:58:24.808Z,12.29
2018-11-06T16:00:55.511Z,12.26
2018-11-06T16:03:25.504Z,12.27
2018-11-06T16:05:55.294Z,12.26
2018-11-06T16:08:25.254Z,12.24
2018-11-06T16:10:55.136Z,12.22
2018-11-06T16:13:24.990Z,12.19
2018-11-06T16:15:55.004Z,12.19
2018-11-06T16:18:24.862Z,12.20
2018-11-06T16:20:54.762Z,12.19
2018-11-06T16:23:24.662Z,12.16
2018-11-06T16:25:54.586Z,12.17
2018-11-06T16:28:24.396Z,12.17
2018-11-06T16:30:54.216Z,12.16
2018-11-06T16:33:24.047Z,12.08
2018-11-06T16:35:53.990Z,12.02
2018-11-06T16:38:24.604Z,12.01
2018-11-06T16:40:54.520Z,12.08
2018-11-06T16:43:24.976Z,12.11
2018-11-06T16:45:54.774Z,12.11
2018-11-06T16:48:25.610Z,12.10
2018-11-06T16:50:55.522Z,12.08
2018-11-06T16:53:25.434Z,12.07
2018-11-06T16:55:55.264Z,12.05
2018-11-06T16:58:25.082Z,12.01
2018-11-06T17:00:55.299Z,12.00
2018-11-06T17:03:25.263Z,11.92
2018-11-06T17:05:55.145Z,11.81
2018-11-06T17:08:24.995Z,11.76
2018-11-06T17:10:54.957Z,11.72
2018-11-06T17:13:25.220Z,11.72
2018-11-06T17:15:55.058Z,11.72
2018-11-06T17:18:24.826Z,11.74
2018-11-06T17:20:54.642Z,11.71
2018-11-06T17:23:24.577Z,11.70
2018-11-06T17:25:54.357Z,11.64
2018-11-06T17:28:24.301Z,11.61
2018-11-06T17:30:55.819Z,11.62
2018-11-06T17:33:25.649Z,11.58
2018-11-06T17:35:55.492Z,11.55
2018-11-06T17:38:25.463Z,11.50
2018-11-06T17:40:55.321Z,11.40
2018-11-06T17:43:25.314Z,11.44
2018-11-06T17:45:55.214Z,11.41
2018-11-06T17:48:25.033Z,11.38
2018-11-06T17:50:55.013Z,11.39
2018-11-06T17:53:25.688Z,11.38
2018-11-06T17:55:55.353Z,11.34
2018-11-06T17:58:25.269Z,11.32
2018-11-06T18:00:55.267Z,11.33
2018-11-06T18:03:25.181Z,11.31
2018-11-06T18:05:55.225Z,11.25
2018-11-06T18:08:25.962Z,11.17
2018-11-06T18:10:56.174Z,11.11
2018-11-06T18:13:26.678Z,11.03
2018-11-06T18:15:56.725Z,10.96
2018-11-06T18:18:26.593Z,10.91
2018-11-06T18:20:56.615Z,10.93
2018-11-06T18:23:26.478Z,10.89
2018-11-06T18:25:56.640Z,10.86
2018-11-06T18:28:26.659Z,10.86
2018-11-06T18:30:56.603Z,10.83
2018-11-06T18:33:27.203Z,10.81
2018-11-06T18:35:57.088Z,10.79
2018-11-06T18:38:27.828Z,10.73
2018-11-06T18:40:57.819Z,10.67
2018-11-06T18:43:27.679Z,10.70
2018-11-06T18:45:57.595Z,10.75
2018-11-06T18:48:27.493Z,10.75
2018-11-06T18:50:57.397Z,10.79
2018-11-06T18:53:27.213Z,10.82
2018-11-06T18:55:57.957Z,10.78
2018-11-06T18:58:27.941Z,10.78
2018-11-06T19:00:58.092Z,10.70
2018-11-06T19:03:27.977Z,10.68
2018-11-06T19:05:57.795Z,10.61
2018-11-06T19:08:27.679Z,10.56
2018-11-06T19:10:57.674Z,10.55
2018-11-06T19:14:56.877Z,10.66
2018-11-06T19:17:26.789Z,10.59
2018-11-06T19:19:56.652Z,10.57
2018-11-06T19:22:26.662Z,10.57
2018-11-06T19:24:56.562Z,10.58
2018-11-06T19:27:26.496Z,10.51
2018-11-06T19:29:56.454Z,10.50
2018-11-06T19:32:26.377Z,10.48
2018-11-06T19:34:56.360Z,10.51
2018-11-06T19:37:26.377Z,10.38
2018-11-06T19:39:56.255Z,10.37
2018-11-06T19:42:26.274Z,10.34
2018-11-06T19:44:56.142Z,10.27
2018-11-06T19:47:26.111Z,10.25
2018-11-06T19:49:56.175Z,10.25
2018-11-06T19:52:26.236Z,10.20
2018-11-06T19:54:56.022Z,10.18
2018-11-06T19:57:25.836Z,10.12
2018-11-06T19:59:55.632Z,10.06
2018-11-06T20:02:25.506Z,10.03
2018-11-06T20:04:55.328Z,9.92
2018-11-06T20:07:25.124Z,9.88
2018-11-06T20:09:55.025Z,9.89
2018-11-06T20:12:24.837Z,9.94
2018-11-06T20:14:54.820Z,9.82
2018-11-06T20:17:24.661Z,9.79
2018-11-06T20:19:54.660Z,9.88
2018-11-06T20:22:24.433Z,9.92
2018-11-06T20:24:54.300Z,9.93
2018-11-06T20:27:24.116Z,9.82
2018-11-06T20:29:54.967Z,9.86
2018-11-06T20:32:25.026Z,9.80
2018-11-06T20:34:54.856Z,9.72
2018-11-06T20:37:24.859Z,9.76
2018-11-06T20:39:55.500Z,9.68
2018-11-06T20:42:25.509Z,9.75
2018-11-06T20:44:55.668Z,9.71
2018-11-06T20:47:25.597Z,9.72
2018-11-06T20:49:55.808Z,9.64
2018-11-06T20:52:25.830Z,9.59
2018-11-06T20:54:55.722Z,9.60
2018-11-06T20:57:25.840Z,9.59
2018-11-06T20:59:55.697Z,9.57
2018-11-06T21:02:25.676Z,9.58
2018-11-06T21:04:55.537Z,9.71
2018-11-06T21:07:25.544Z,9.66
2018-11-06T21:09:55.466Z,9.43
2018-11-06T21:12:25.326Z,9.50
2018-11-06T21:14:55.495Z,9.58
2018-11-06T21:17:25.357Z,9.38
2018-11-06T21:19:55.285Z,9.30
2018-11-06T21:22:25.204Z,9.08
2018-11-06T21:24:55.193Z,9.01
2018-11-06T21:27:25.138Z,9.00
2018-11-06T21:29:54.955Z,9.21
2018-11-06T21:32:24.832Z,9.18
2018-11-06T21:34:54.796Z,9.13
2018-11-06T21:37:25.224Z,9.16
2018-11-06T21:39:55.331Z,9.11
2018-11-06T21:42:25.273Z,9.23
2018-11-06T21:44:55.771Z,9.21
2018-11-06T21:47:25.739Z,9.05
2018-11-06T21:49:56.294Z,9.02
2018-11-06T21:52:26.313Z,8.90
2018-11-06T21:54:56.169Z,8.89
2018-11-06T21:57:25.948Z,8.98
2018-11-06T21:59:56.133Z,8.98
2018-11-06T22:02:26.049Z,8.99
2018-11-06T22:04:56.541Z,8.91
2018-11-06T22:07:26.454Z,8.77
2018-11-06T22:09:56.237Z,8.84
2018-11-06T22:12:26.602Z,8.86
2018-11-06T22:14:56.481Z,8.79
2018-11-06T22:17:26.975Z,8.63
2018-11-06T22:19:56.780Z,8.52
2018-11-06T22:22:26.657Z,8.54
2018-11-06T22:24:56.657Z,8.42
2018-11-06T22:27:26.550Z,8.42
2018-11-06T22:29:56.591Z,8.52
2018-11-06T22:32:27.095Z,8.47
2018-11-06T22:42:08.681Z,8.46
2018-11-06T22:44:38.639Z,8.33
2018-11-06T22:47:08.569Z,8.49
2018-11-06T22:49:38.429Z,8.52
2018-11-06T22:52:08.541Z,8.49
2018-11-06T22:54:39.464Z,8.42
2018-11-06T22:57:09.421Z,8.31
2018-11-06T22:59:39.292Z,8.27
2018-11-06T23:02:09.973Z,8.27
2018-11-06T23:04:39.786Z,8.31
2018-11-06T23:07:13.808Z,8.32
2018-11-06T23:09:43.890Z,8.34
2018-11-06T23:12:13.937Z,8.14
2018-11-06T23:14:44.520Z,8.02
2018-11-06T23:17:14.525Z,8.04
2018-11-06T23:19:44.613Z,8.08
2018-11-06T23:22:14.554Z,8.00
2018-11-06T23:24:44.681Z,7.92
2018-11-06T23:27:15.705Z,8.10
2018-11-06T23:29:50.298Z,8.00
2018-11-06T23:32:20.615Z,8.02
2018-11-06T23:34:51.789Z,8.01
2018-11-06T23:37:22.937Z,8.07
2018-11-06T23:39:52.981Z,8.03
2018-11-06T23:42:22.962Z,7.98
2018-11-06T23:44:53.458Z,7.99
2018-11-06T23:47:23.341Z,7.94
2018-11-06T23:49:53.495Z,7.88
2018-11-06T23:52:24.059Z,7.98
2018-11-06T23:54:54.049Z,7.94
2018-11-06T23:57:24.494Z,7.91
2018-11-06T23:59:54.543Z,7.94
